Jefferson Valley, New York
Current Conditions -  °F | °C
As of 11:23 AM on Monday 26 Jan 2015 (Local Time) from KDXR Reporting Station
Light Snow Light Snow  
Wind Chill:   Ceiling: 2600
Heat Index: 17°   Visibility: 1.5mi
Dew Point:   Wind: 12mph
Humidity: 65%   Direction: 40°NE
Pressure: 30.01"   Gusts: NA
Location:  41.34°N, 73.79°W
Report Text: KDXR 261623Z 04010KT 1 1/2SM -SN BKN026 OVC036 M08/M14 A3001 RMK AO2 P0000 T10831139
Loading
Personal Weather Stations






























Interactive Weather Map New forecast layout! Learn more

10-Day Weather Forecast

Advertisements
Track Severe Weather on mobile